Time;durP1;ratioP1;P1;durP2;ratioP2;P2;SDS_P1;SDS_P2;PMS_P1;PMS_P2;Temp;Humidity;BMP_temperature;BMP_pressure;BME280_temperature;BME280_humidity;BME280_pressure;Samples;Min_cycle;Max_cycle;Signal;HPM_P1;HPM_P2
2022/08/08 00:00:13;;;;;;;8.25;4.20;;;;;;;;;;4990532;28;20053;-65
2022/08/08 00:02:42;;;;;;;7.20;4.00;;;;;;;;;;4990508;28;20469;-65
2022/08/08 00:05:27;;;;;;;5.70;4.40;;;;;;;;;;4990018;28;20042;-65
2022/08/08 00:08:02;;;;;;;7.43;4.53;;;;;;;;;;4990283;28;20497;-65
2022/08/08 00:10:28;;;;;;;6.53;4.60;;;;;;;;;;4990362;28;20038;-65
2022/08/08 00:13:13;;;;;;;6.28;4.00;;;;;;;;;;4989995;28;20046;-65
2022/08/08 00:15:42;;;;;;;7.75;4.40;;;;;;;;;;4990236;28;20045;-65
2022/08/08 00:18:17;;;;;;;7.90;4.28;;;;;;;;;;4990159;28;20561;-65
2022/08/08 00:20:43;;;;;;;8.50;4.20;;;;;;;;;;4989525;28;20035;-65
2022/08/08 00:23:29;;;;;;;6.68;4.15;;;;;;;;;;4990089;28;20042;-65
2022/08/08 00:25:57;;;;;;;5.18;4.22;;;;;;;;;;4989585;28;20112;-65
2022/08/08 00:28:33;;;;;;;6.13;4.47;;;;;;;;;;4989567;28;20040;-65
2022/08/08 00:31:00;;;;;;;6.78;4.15;;;;;;;;;;4989858;28;20180;-65
2022/08/08 00:33:28;;;;;;;6.13;4.20;;;;;;;;;;4989905;28;20042;-65
2022/08/08 00:36:00;;;;;;;7.55;4.13;;;;;;;;;;4990053;28;20043;-65
2022/08/08 00:38:26;;;;;;;;;;;;;;;;;;4990402;28;20038;-65
2022/08/08 00:41:11;;;;;;;4.72;3.72;;;;;;;;;;4972052;28;19918;-65
2022/08/08 00:43:43;;;;;;;5.10;3.65;;;;;;;;;;4989720;28;20275;-65
2022/08/08 00:46:18;;;;;;;7.18;4.07;;;;;;;;;;4989862;28;20050;-65
2022/08/08 00:48:59;;;;;;;5.60;3.95;;;;;;;;;;4988930;28;20121;-65
2022/08/08 00:51:28;;;;;;;4.70;3.95;;;;;;;;;;4972126;28;20047;-65
2022/08/08 00:53:54;;;;;;;5.15;3.75;;;;;;;;;;4972363;28;20129;-65
2022/08/08 00:56:20;;;;;;;7.60;3.97;;;;;;;;;;4989405;28;20462;-65
2022/08/08 00:59:05;;;;;;;4.50;3.67;;;;;;;;;;4989795;28;20054;-65
2022/08/08 01:01:33;;;;;;;6.40;3.70;;;;;;;;;;4989956;28;20042;-65
2022/08/08 01:03:59;;;;;;;5.28;4.47;;;;;;;;;;4989478;28;20137;-65
2022/08/08 01:07:01;;;;;;;9.77;4.15;;;;;;;;;;4989983;28;20169;-65
2022/08/08 01:09:55;;;;;;;6.28;4.35;;;;;;;;;;4909998;29;20062;-65
2022/08/08 01:12:46;;;;;;;6.97;4.03;;;;;;;;;;4988413;28;20054;-64
2022/08/08 01:15:28;;;;;;;17.70;4.45;;;;;;;;;;4989851;28;20457;-64
2022/08/08 01:18:12;;;;;;;11.13;4.68;;;;;;;;;;4988947;28;20044;-64
2022/08/08 01:20:50;;;;;;;6.45;4.13;;;;;;;;;;4989433;28;20042;-64
2022/08/08 01:23:22;;;;;;;6.32;4.97;;;;;;;;;;4989759;28;20043;-65
2022/08/08 01:26:08;;;;;;;7.72;4.32;;;;;;;;;;4989367;28;20756;-65
2022/08/08 01:28:57;;;;;;;6.55;4.80;;;;;;;;;;4989513;28;20085;-65
2022/08/08 01:31:42;;;;;;;7.20;4.63;;;;;;;;;;4989324;28;20330;-65
2022/08/08 01:34:26;;;;;;;6.55;4.90;;;;;;;;;;4991103;28;20042;-65
2022/08/08 01:37:11;;;;;;;6.85;4.85;;;;;;;;;;4993208;28;20042;-64
2022/08/08 01:39:56;;;;;;;6.65;5.55;;;;;;;;;;4993232;28;20041;-64
2022/08/08 01:42:30;;;;;;;7.93;5.63;;;;;;;;;;4992710;28;20089;-64
2022/08/08 01:44:59;;;;;;;6.95;5.68;;;;;;;;;;4993407;28;20049;-64
2022/08/08 01:47:47;;;;;;;7.75;5.60;;;;;;;;;;4992357;28;20080;-64
2022/08/08 01:50:26;;;;;;;7.20;5.72;;;;;;;;;;4992845;28;20054;-64
2022/08/08 01:52:56;;;;;;;6.65;5.57;;;;;;;;;;4992740;28;20410;-64
2022/08/08 01:55:27;;;;;;;6.85;6.15;;;;;;;;;;4992524;28;20093;-64
2022/08/08 01:58:02;;;;;;;7.03;5.90;;;;;;;;;;4992929;28;20503;-64
2022/08/08 02:00:52;;;;;;;7.85;5.75;;;;;;;;;;4992897;28;20046;-64
2022/08/08 02:03:22;;;;;;;6.82;5.82;;;;;;;;;;4981704;28;20057;-64
2022/08/08 02:05:57;;;;;;;7.53;5.82;;;;;;;;;;4992640;28;20046;-64
2022/08/08 02:08:42;;;;;;;6.20;5.40;;;;;;;;;;4992259;28;20489;-64
2022/08/08 02:11:28;;;;;;;8.27;5.95;;;;;;;;;;4974654;28;20042;-64
2022/08/08 02:14:12;;;;;;;6.07;5.28;;;;;;;;;;4992196;28;20137;-64
2022/08/08 02:16:43;;;;;;;7.00;4.55;;;;;;;;;;4992277;28;20074;-64
2022/08/08 02:19:18;;;;;;;5.80;4.15;;;;;;;;;;4991853;28;20405;-64
2022/08/08 02:24:58;;;;;;;6.32;4.90;;;;;;;;;;4991982;28;20050;-64
2022/08/08 02:27:27;;;;;;;7.18;5.30;;;;;;;;;;4972476;28;20050;-64
2022/08/08 02:29:56;;;;;;;8.77;5.97;;;;;;;;;;4972870;28;20043;-64
2022/08/08 02:32:28;;;;;;;9.20;5.65;;;;;;;;;;4972402;28;20529;-64
2022/08/08 02:35:03;;;;;;;9.35;6.05;;;;;;;;;;4972863;28;20125;-64
2022/08/08 02:37:38;;;;;;;6.57;5.38;;;;;;;;;;4972585;28;20054;-64
2022/08/08 02:40:11;;;;;;;7.57;5.53;;;;;;;;;;4972268;28;20047;-64
2022/08/08 02:42:37;;;;;;;7.82;6.07;;;;;;;;;;4979227;28;20034;-64
2022/08/08 02:45:22;;;;;;;7.30;5.72;;;;;;;;;;4991625;28;20053;-64
2022/08/08 02:47:48;;;;;;;6.72;5.78;;;;;;;;;;4990886;28;20417;-64
2022/08/08 02:50:32;;;;;;;6.28;5.45;;;;;;;;;;4991896;28;20050;-64
2022/08/08 02:53:05;;;;;;;8.02;6.13;;;;;;;;;;4991768;28;20106;-64
2022/08/08 02:55:31;;;;;;;7.85;5.75;;;;;;;;;;4991488;28;20042;-64
2022/08/08 02:58:03;;;;;;;5.97;4.80;;;;;;;;;;4991514;28;20057;-64
2022/08/08 03:00:29;;;;;;;7.28;5.50;;;;;;;;;;4991841;28;20045;-64
2022/08/08 03:02:58;;;;;;;8.68;5.25;;;;;;;;;;4991266;28;20046;-64
2022/08/08 03:05:30;;;;;;;5.63;4.88;;;;;;;;;;4991658;28;20041;-64
2022/08/08 03:07:56;;;;;;;5.72;4.63;;;;;;;;;;4991429;28;20053;-64
2022/08/08 03:10:31;;;;;;;7.03;5.18;;;;;;;;;;4990944;28;20046;-64
2022/08/08 03:12:57;;;;;;;5.97;5.40;;;;;;;;;;4991449;28;20562;-64
2022/08/08 03:15:35;;;;;;;7.47;4.90;;;;;;;;;;4991289;28;20046;-64
2022/08/08 03:18:06;;;;;;;5.07;4.55;;;;;;;;;;4990568;28;20042;-64
2022/08/08 03:20:49;;;;;;;5.90;4.68;;;;;;;;;;4991191;28;20412;-64
2022/08/08 03:23:16;;;;;;;7.65;5.47;;;;;;;;;;4991336;28;20045;-64
2022/08/08 03:25:44;;;;;;;4.88;4.32;;;;;;;;;;4990783;28;20041;-64
2022/08/08 03:28:15;;;;;;;5.63;5.13;;;;;;;;;;4990889;28;20035;-64
2022/08/08 03:30:44;;;;;;;6.38;5.05;;;;;;;;;;4973530;28;20046;-64
2022/08/08 03:33:17;;;;;;;8.15;5.63;;;;;;;;;;4990980;28;20065;-64
2022/08/08 03:35:43;;;;;;;7.38;4.78;;;;;;;;;;4990753;28;20038;-64
2022/08/08 03:38:09;;;;;;;7.20;5.25;;;;;;;;;;4990737;28;20045;-64
2022/08/08 03:40:36;;;;;;;5.45;4.95;;;;;;;;;;4990817;28;20481;-64
2022/08/08 03:43:02;;;;;;;5.60;5.05;;;;;;;;;;4990658;28;20042;-64
2022/08/08 03:45:29;;;;;;;8.10;6.00;;;;;;;;;;4990474;28;20046;-64
2022/08/08 03:48:06;;;;;;;7.05;5.22;;;;;;;;;;4989905;28;20413;-64
2022/08/08 03:50:34;;;;;;;4.63;4.15;;;;;;;;;;4990294;28;20049;-64
2022/08/08 03:53:08;;;;;;;4.95;4.50;;;;;;;;;;4990642;28;20046;-64
2022/08/08 03:55:37;;;;;;;4.68;3.85;;;;;;;;;;4991200;28;20046;-64
2022/08/08 03:58:03;;;;;;;5.90;4.30;;;;;;;;;;4991639;28;20402;-64
2022/08/08 04:00:29;;;;;;;4.78;4.38;;;;;;;;;;4991625;28;20050;-64
2022/08/08 04:03:03;;;;;;;14.60;5.10;;;;;;;;;;4991483;28;20674;-64
2022/08/08 04:05:30;;;;;;;5.88;4.10;;;;;;;;;;4991723;28;20042;-64
2022/08/08 04:07:56;;;;;;;8.25;4.05;;;;;;;;;;4991616;28;20085;-64
2022/08/08 04:10:22;;;;;;;5.75;4.75;;;;;;;;;;4991140;28;20511;-64
2022/08/08 04:12:48;;;;;;;7.55;4.60;;;;;;;;;;4991631;28;20126;-64
2022/08/08 04:15:14;;;;;;;5.82;4.63;;;;;;;;;;4974321;28;20518;-64
2022/08/08 04:17:40;;;;;;;8.43;5.30;;;;;;;;;;4991077;28;20066;-64
2022/08/08 04:20:07;;;;;;;6.88;5.15;;;;;;;;;;4991249;28;20042;-64
2022/08/08 04:22:33;;;;;;;6.60;5.47;;;;;;;;;;4974164;28;20043;-64
2022/08/08 04:24:59;;;;;;;6.22;5.25;;;;;;;;;;4991132;28;20108;-64
2022/08/08 04:27:25;;;;;;;11.73;5.85;;;;;;;;;;4973995;28;20054;-64
2022/08/08 04:29:51;;;;;;;7.25;5.20;;;;;;;;;;4991387;28;20373;-64
2022/08/08 04:32:18;;;;;;;8.05;5.80;;;;;;;;;;4991083;28;20466;-64
2022/08/08 04:34:44;;;;;;;8.98;5.65;;;;;;;;;;4991150;28;20046;-64
2022/08/08 04:37:11;;;;;;;6.13;5.38;;;;;;;;;;4991246;28;20039;-64
2022/08/08 04:39:37;;;;;;;8.05;5.65;;;;;;;;;;4990937;28;20088;-64
2022/08/08 04:42:03;;;;;;;9.60;5.90;;;;;;;;;;4990716;28;20516;-64
2022/08/08 04:44:30;;;;;;;6.57;5.88;;;;;;;;;;4990903;28;20049;-64
2022/08/08 04:46:56;;;;;;;6.80;5.35;;;;;;;;;;4990564;28;20049;-64
2022/08/08 04:49:22;;;;;;;6.97;4.90;;;;;;;;;;4990684;28;20401;-64
2022/08/08 04:51:48;;;;;;;5.03;4.53;;;;;;;;;;4991207;28;20050;-64
2022/08/08 04:54:14;;;;;;;7.18;5.10;;;;;;;;;;4990897;28;20049;-64
2022/08/08 04:56:40;;;;;;;6.35;4.95;;;;;;;;;;4990718;28;20046;-64
2022/08/08 04:59:06;;;;;;;6.05;4.32;;;;;;;;;;4973621;28;20129;-64
2022/08/08 05:01:32;;;;;;;5.78;4.88;;;;;;;;;;4990885;28;20486;-64
2022/08/08 05:03:58;;;;;;;6.65;5.47;;;;;;;;;;4991161;28;20066;-64
2022/08/08 05:06:24;;;;;;;5.75;5.10;;;;;;;;;;4991063;28;20129;-64
2022/08/08 05:08:51;;;;;;;6.57;5.40;;;;;;;;;;4993775;28;20129;-64
2022/08/08 05:11:17;;;;;;;7.82;6.70;;;;;;;;;;4995005;28;20120;-64
2022/08/08 05:13:43;;;;;;;9.20;6.85;;;;;;;;;;4994558;28;20069;-64
2022/08/08 05:16:10;;;;;;;7.32;6.55;;;;;;;;;;4994120;28;20058;-64
2022/08/08 05:18:36;;;;;;;8.35;6.60;;;;;;;;;;4994275;28;20042;-64
2022/08/08 05:21:03;;;;;;;10.10;6.57;;;;;;;;;;4994376;28;20054;-64
2022/08/08 05:23:30;;;;;;;9.27;6.55;;;;;;;;;;4993805;28;20125;-64
2022/08/08 05:25:56;;;;;;;8.95;5.80;;;;;;;;;;4994242;28;20038;-64
2022/08/08 05:28:22;;;;;;;6.80;5.45;;;;;;;;;;4993908;28;20473;-64
2022/08/08 05:30:48;;;;;;;8.18;5.35;;;;;;;;;;4994136;28;20092;-64
2022/08/08 05:33:14;;;;;;;9.00;6.03;;;;;;;;;;4994617;28;20377;-64
2022/08/08 05:35:44;;;;;;;11.15;6.32;;;;;;;;;;4994497;28;20037;-64
2022/08/08 05:38:14;;;;;;;8.40;7.07;;;;;;;;;;4994139;28;20412;-64
2022/08/08 05:40:44;;;;;;;13.50;6.60;;;;;;;;;;4994462;28;20121;-64
2022/08/08 05:43:15;;;;;;;12.70;6.60;;;;;;;;;;4994479;28;20182;-64
2022/08/08 05:45:42;;;;;;;8.50;6.18;;;;;;;;;;4993929;28;20039;-64
2022/08/08 05:48:09;;;;;;;8.07;5.30;;;;;;;;;;4993702;28;20080;-64
2022/08/08 05:50:36;;;;;;;7.32;5.65;;;;;;;;;;4992484;28;20108;-64
2022/08/08 05:53:02;;;;;;;10.23;5.75;;;;;;;;;;4992361;28;20046;-64
2022/08/08 05:55:28;;;;;;;15.10;7.47;;;;;;;;;;4993948;28;20046;-64
2022/08/08 05:57:57;;;;;;;7.72;6.55;;;;;;;;;;4992580;28;20046;-64
2022/08/08 06:00:24;;;;;;;10.00;7.63;;;;;;;;;;4992924;28;20377;-65
2022/08/08 06:03:10;;;;;;;10.25;6.75;;;;;;;;;;4993222;28;20042;-64
2022/08/08 06:06:05;;;;;;;9.32;8.25;;;;;;;;;;4993519;28;20368;-64
2022/08/08 06:08:35;;;;;;;8.65;7.47;;;;;;;;;;4990158;28;20133;-64
2022/08/08 06:11:02;;;;;;;13.35;8.88;;;;;;;;;;4996519;28;20038;-63
2022/08/08 06:13:28;;;;;;;15.00;8.68;;;;;;;;;;5004974;28;20042;-61
2022/08/08 06:15:54;;;;;;;14.90;9.77;;;;;;;;;;4993329;28;20038;-60
2022/08/08 06:18:23;;;;;;;11.68;8.77;;;;;;;;;;4992877;28;20044;-61
2022/08/08 06:20:51;;;;;;;16.98;8.88;;;;;;;;;;4992282;28;20050;-60
2022/08/08 06:23:17;;;;;;;9.93;8.02;;;;;;;;;;4992683;28;20101;-61
2022/08/08 06:25:45;;;;;;;11.55;7.28;;;;;;;;;;4992367;28;20034;-61
2022/08/08 06:28:22;;;;;;;16.23;7.15;;;;;;;;;;4993156;28;20450;-60
2022/08/08 06:30:49;;;;;;;10.27;7.40;;;;;;;;;;4992442;28;20052;-60
2022/08/08 06:33:16;;;;;;;11.38;6.03;;;;;;;;;;4992330;28;20096;-59
2022/08/08 06:35:49;;;;;;;10.48;6.13;;;;;;;;;;4992729;28;20042;-60
2022/08/08 06:38:15;;;;;;;;;;;;;;;;;;4995283;28;20043;-61
2022/08/08 06:40:42;;;;;;;8.68;6.13;;;;;;;;;;4992680;28;19924;-59
2022/08/08 06:43:09;;;;;;;11.98;6.22;;;;;;;;;;4995877;28;20046;-61
2022/08/08 06:45:37;;;;;;;10.25;6.10;;;;;;;;;;4990920;28;20515;-63
2022/08/08 06:48:04;;;;;;;9.30;5.50;;;;;;;;;;4991987;28;20093;-64
2022/08/08 06:50:31;;;;;;;12.63;7.47;;;;;;;;;;4993835;28;20046;-65
2022/08/08 06:53:02;;;;;;;13.50;8.18;;;;;;;;;;4991711;28;20061;-65
2022/08/08 06:55:29;;;;;;;11.05;5.60;;;;;;;;;;4992148;28;20042;-64
2022/08/08 06:57:55;;;;;;;10.50;5.93;;;;;;;;;;4992589;28;20046;-64
2022/08/08 07:00:21;;;;;;;14.02;6.53;;;;;;;;;;4992070;28;20046;-65
2022/08/08 07:02:57;;;;;;;12.18;6.32;;;;;;;;;;4992057;28;20363;-66
2022/08/08 07:05:25;;;;;;;10.52;5.28;;;;;;;;;;4991969;28;20065;-67
2022/08/08 07:07:51;;;;;;;9.75;4.05;;;;;;;;;;4991467;28;20108;-67
2022/08/08 07:10:19;;;;;;;12.93;4.53;;;;;;;;;;4991751;28;20573;-66
2022/08/08 07:13:01;;;;;;;7.72;4.68;;;;;;;;;;4991568;28;20078;-66
2022/08/08 07:15:37;;;;;;;7.72;4.40;;;;;;;;;;4972143;28;20047;-66
2022/08/08 07:18:05;;;;;;;4.93;2.25;;;;;;;;;;4983864;28;20043;-66
2022/08/08 07:20:35;;;;;;;9.50;2.63;;;;;;;;;;4973656;28;20409;-65
2022/08/08 07:23:01;;;;;;;8.95;2.33;;;;;;;;;;4991458;28;20045;-66
2022/08/08 07:25:30;;;;;;;5.00;2.20;;;;;;;;;;4992238;28;20118;-65
2022/08/08 07:28:01;;;;;;;8.98;2.80;;;;;;;;;;4991458;28;20093;-64
2022/08/08 07:30:27;;;;;;;9.43;2.47;;;;;;;;;;4991529;28;20034;-66
2022/08/08 07:32:54;;;;;;;9.88;2.90;;;;;;;;;;4991639;28;20381;-63
2022/08/08 07:35:21;;;;;;;10.38;2.88;;;;;;;;;;4991417;28;20042;-65
2022/08/08 07:37:50;;;;;;;7.15;2.15;;;;;;;;;;4991511;28;20042;-67
2022/08/08 07:40:16;;;;;;;6.63;2.20;;;;;;;;;;4991747;28;20117;-67
2022/08/08 07:42:44;;;;;;;7.53;3.35;;;;;;;;;;4979340;28;20073;-66
2022/08/08 07:45:10;;;;;;;8.77;2.92;;;;;;;;;;4991425;28;20040;-67
2022/08/08 07:47:36;;;;;;;8.38;2.47;;;;;;;;;;4991384;28;20133;-66
2022/08/08 07:50:04;;;;;;;7.47;2.10;;;;;;;;;;4991109;28;20058;-65
2022/08/08 07:52:30;;;;;;;6.75;2.10;;;;;;;;;;4991282;28;20132;-64
2022/08/08 07:55:16;;;;;;;10.75;2.83;;;;;;;;;;4991139;28;20038;-64
2022/08/08 07:57:48;;;;;;;5.03;1.90;;;;;;;;;;4990381;28;20053;-64
2022/08/08 08:00:16;;;;;;;3.47;1.90;;;;;;;;;;4991476;28;20034;-63
2022/08/08 08:03:00;;;;;;;8.57;2.45;;;;;;;;;;4990891;28;20038;-64
2022/08/08 08:05:27;;;;;;;10.27;2.08;;;;;;;;;;4990692;28;20073;-65
2022/08/08 08:07:54;;;;;;;6.65;1.88;;;;;;;;;;4990896;28;20042;-64
2022/08/08 08:10:20;;;;;;;7.75;2.00;;;;;;;;;;4991174;28;20481;-63
2022/08/08 08:12:51;;;;;;;4.60;1.83;;;;;;;;;;4990570;28;20050;-63
2022/08/08 08:15:18;;;;;;;4.57;1.70;;;;;;;;;;4988700;28;20405;-62
2022/08/08 08:17:46;;;;;;;4.07;1.70;;;;;;;;;;4990824;28;20042;-62
2022/08/08 08:20:14;;;;;;;4.03;1.83;;;;;;;;;;4990677;28;20034;-65
2022/08/08 08:22:40;;;;;;;5.85;1.73;;;;;;;;;;4990850;28;20042;-66
2022/08/08 08:25:06;;;;;;;6.53;1.85;;;;;;;;;;4982543;28;20039;-64
2022/08/08 08:27:32;;;;;;;6.50;1.70;;;;;;;;;;4992548;28;20046;-65
2022/08/08 08:29:58;;;;;;;6.57;1.95;;;;;;;;;;4992845;28;20052;-65
2022/08/08 08:32:25;;;;;;;6.78;1.70;;;;;;;;;;4990129;28;20042;-65
2022/08/08 08:34:51;;;;;;;5.05;1.80;;;;;;;;;;4988793;28;20713;-65
2022/08/08 08:37:17;;;;;;;10.85;4.18;;;;;;;;;;4989400;28;20046;-64
2022/08/08 08:39:43;;;;;;;5.45;2.08;;;;;;;;;;4989515;28;20147;-64
2022/08/08 08:42:10;;;;;;;6.70;1.70;;;;;;;;;;4994141;28;20049;-62
2022/08/08 08:44:36;;;;;;;6.40;2.00;;;;;;;;;;4996182;28;20060;-62
2022/08/08 08:47:02;;;;;;;6.90;1.70;;;;;;;;;;4995768;28;20481;-65
2022/08/08 08:49:29;;;;;;;4.72;1.60;;;;;;;;;;4996079;28;20078;-64
2022/08/08 08:51:56;;;;;;;4.20;1.60;;;;;;;;;;4995712;28;20507;-65
2022/08/08 08:54:23;;;;;;;4.35;1.30;;;;;;;;;;4977674;28;20076;-65
2022/08/08 08:56:49;;;;;;;4.80;1.50;;;;;;;;;;4994804;28;20074;-64
2022/08/08 08:59:17;;;;;;;4.88;1.58;;;;;;;;;;5010840;28;20400;-62
2022/08/08 09:01:44;;;;;;;4.00;1.33;;;;;;;;;;4996196;28;20042;-63
2022/08/08 09:04:13;;;;;;;3.65;1.30;;;;;;;;;;4996360;28;20038;-63
2022/08/08 09:06:40;;;;;;;3.17;1.20;;;;;;;;;;4995976;28;20073;-63
2022/08/08 09:09:11;;;;;;;3.17;1.00;;;;;;;;;;4996327;28;20085;-64
2022/08/08 09:11:37;;;;;;;5.63;1.40;;;;;;;;;;4996326;28;20049;-65
2022/08/08 09:14:04;;;;;;;3.05;1.08;;;;;;;;;;4996492;28;20508;-64
2022/08/08 09:16:30;;;;;;;2.15;1.25;;;;;;;;;;4995662;28;20424;-64
2022/08/08 09:18:57;;;;;;;3.90;1.20;;;;;;;;;;4991655;28;20038;-64
2022/08/08 09:21:23;;;;;;;4.60;1.15;;;;;;;;;;4996139;28;20066;-62
2022/08/08 09:23:50;;;;;;;2.03;0.90;;;;;;;;;;4986678;28;20052;-62
2022/08/08 09:26:22;;;;;;;3.63;1.17;;;;;;;;;;5007158;28;20042;-63
2022/08/08 09:28:49;;;;;;;1.20;1.00;;;;;;;;;;4995397;28;20046;-65
2022/08/08 09:31:16;;;;;;;3.13;1.00;;;;;;;;;;4996218;28;20121;-65
2022/08/08 09:33:44;;;;;;;4.57;1.30;;;;;;;;;;4996160;28;20042;-65
2022/08/08 09:36:17;;;;;;;4.32;1.15;;;;;;;;;;4995301;28;20046;-65
2022/08/08 09:38:56;;;;;;;3.80;1.20;;;;;;;;;;4995905;28;20058;-64
2022/08/08 09:41:27;;;;;;;4.03;1.35;;;;;;;;;;4996132;28;20034;-63
2022/08/08 09:43:59;;;;;;;2.10;0.95;;;;;;;;;;4995599;28;20045;-63
2022/08/08 09:46:26;;;;;;;5.15;1.50;;;;;;;;;;5004896;28;20103;-63
2022/08/08 09:48:53;;;;;;;4.97;1.30;;;;;;;;;;4999144;28;20085;-63
2022/08/08 09:51:22;;;;;;;3.10;1.20;;;;;;;;;;4996233;28;20058;-63
2022/08/08 09:53:49;;;;;;;5.75;1.17;;;;;;;;;;4993996;28;20057;-62
2022/08/08 09:56:16;;;;;;;3.80;1.48;;;;;;;;;;4992000;28;20640;-63
2022/08/08 09:58:48;;;;;;;2.78;1.60;;;;;;;;;;4992173;28;20054;-64
2022/08/08 10:01:19;;;;;;;4.43;1.10;;;;;;;;;;4991748;28;20046;-63
2022/08/08 10:03:46;;;;;;;3.33;0.90;;;;;;;;;;4987808;28;20042;-66
2022/08/08 10:06:19;;;;;;;3.30;1.13;;;;;;;;;;4992078;28;20073;-64
2022/08/08 10:08:50;;;;;;;4.00;1.10;;;;;;;;;;4992160;28;20054;-64
2022/08/08 10:11:19;;;;;;;1.25;0.82;;;;;;;;;;4994245;28;20069;-63
2022/08/08 10:13:58;;;;;;;6.25;1.10;;;;;;;;;;4996100;28;20050;-63
2022/08/08 10:16:35;;;;;;;5.18;0.93;;;;;;;;;;4992350;28;20043;-63
2022/08/08 10:19:05;;;;;;;1.90;0.88;;;;;;;;;;4992205;28;20070;-63
2022/08/08 10:21:34;;;;;;;3.38;0.90;;;;;;;;;;4975083;28;20130;-62
2022/08/08 10:24:08;;;;;;;1.48;0.70;;;;;;;;;;4993343;28;20097;-63
2022/08/08 10:26:38;;;;;;;2.60;0.82;;;;;;;;;;4991673;28;20593;-64
2022/08/08 10:29:06;;;;;;;3.40;0.80;;;;;;;;;;4992059;28;20126;-63
2022/08/08 10:34:19;;;;;;;2.20;0.82;;;;;;;;;;4992067;28;20050;-65
2022/08/08 10:36:45;;;;;;;3.00;0.93;;;;;;;;;;4991786;28;20066;-64
2022/08/08 10:39:17;;;;;;;5.82;1.00;;;;;;;;;;4992001;28;20532;-65
2022/08/08 10:41:45;;;;;;;3.43;0.70;;;;;;;;;;4992588;28;20034;-65
2022/08/08 10:44:11;;;;;;;1.83;0.60;;;;;;;;;;4993986;28;20681;-65
2022/08/08 10:46:37;;;;;;;3.22;0.93;;;;;;;;;;4991527;28;20042;-65
2022/08/08 10:49:04;;;;;;;1.85;0.90;;;;;;;;;;4991055;28;20391;-65
2022/08/08 10:51:35;;;;;;;3.55;0.93;;;;;;;;;;4991984;28;20557;-65
2022/08/08 10:54:01;;;;;;;2.88;1.00;;;;;;;;;;4976442;28;20046;-65
2022/08/08 10:56:32;;;;;;;3.85;0.98;;;;;;;;;;5001399;28;20057;-65
2022/08/08 10:59:01;;;;;;;3.47;0.80;;;;;;;;;;4999008;28;20130;-65
2022/08/08 11:01:28;;;;;;;1.08;0.70;;;;;;;;;;4992130;28;20061;-65
2022/08/08 11:03:57;;;;;;;2.55;0.77;;;;;;;;;;4991801;28;20440;-65
2022/08/08 11:06:23;;;;;;;2.17;0.90;;;;;;;;;;4973913;28;20054;-65
2022/08/08 11:08:59;;;;;;;1.83;1.20;;;;;;;;;;4991534;28;20053;-65
2022/08/08 11:11:25;;;;;;;1.63;0.90;;;;;;;;;;4973566;28;20088;-65
2022/08/08 11:13:51;;;;;;;3.85;0.82;;;;;;;;;;4991254;28;20488;-66
2022/08/08 11:16:21;;;;;;;2.30;0.90;;;;;;;;;;4973517;28;20382;-65
2022/08/08 11:18:52;;;;;;;2.05;0.80;;;;;;;;;;4972733;28;20050;-64
2022/08/08 11:21:22;;;;;;;1.63;0.80;;;;;;;;;;4991736;28;20042;-65
2022/08/08 11:23:49;;;;;;;0.60;0.60;;;;;;;;;;4993513;28;20085;-64
2022/08/08 11:26:18;;;;;;;1.88;0.85;;;;;;;;;;4995761;28;20088;-65
2022/08/08 11:28:45;;;;;;;1.05;0.60;;;;;;;;;;4991583;28;20476;-66
2022/08/08 11:31:14;;;;;;;4.55;1.20;;;;;;;;;;4995699;28;20088;-65
2022/08/08 11:33:40;;;;;;;2.75;0.90;;;;;;;;;;4973599;28;20743;-65
2022/08/08 11:36:07;;;;;;;2.85;1.65;;;;;;;;;;4991775;28;20513;-65
2022/08/08 11:38:33;;;;;;;9.70;6.75;;;;;;;;;;4992445;28;20034;-66
2022/08/08 11:40:59;;;;;;;3.65;1.33;;;;;;;;;;4990637;28;20186;-65
2022/08/08 11:43:26;;;;;;;4.07;1.00;;;;;;;;;;5003357;28;20073;-64
2022/08/08 11:45:53;;;;;;;3.08;1.27;;;;;;;;;;4990712;28;20042;-64
2022/08/08 11:48:19;;;;;;;4.32;0.90;;;;;;;;;;4990671;28;20401;-64
2022/08/08 11:50:45;;;;;;;3.53;1.05;;;;;;;;;;4990890;28;20133;-64
2022/08/08 11:53:12;;;;;;;3.33;0.90;;;;;;;;;;4990671;28;20125;-64
2022/08/08 11:55:51;;;;;;;2.75;1.13;;;;;;;;;;4983559;28;20397;-67
2022/08/08 11:58:18;;;;;;;4.35;1.60;;;;;;;;;;4990815;28;20051;-67
2022/08/08 12:00:51;;;;;;;3.13;1.08;;;;;;;;;;4991078;28;20043;-66
2022/08/08 12:03:20;;;;;;;3.75;1.08;;;;;;;;;;4990509;28;20041;-65
2022/08/08 12:05:46;;;;;;;2.67;1.02;;;;;;;;;;4991330;28;20030;-66
2022/08/08 12:08:12;;;;;;;2.05;1.05;;;;;;;;;;4991050;28;20038;-66
2022/08/08 12:10:46;;;;;;;3.45;0.80;;;;;;;;;;4990317;28;20050;-65
2022/08/08 12:13:14;;;;;;;3.72;0.80;;;;;;;;;;4990491;28;20121;-64
2022/08/08 12:15:50;;;;;;;1.88;0.80;;;;;;;;;;4990704;28;20173;-64
2022/08/08 12:18:17;;;;;;;2.45;0.75;;;;;;;;;;4989641;28;20056;-65
2022/08/08 12:20:43;;;;;;;1.92;0.90;;;;;;;;;;4990276;28;20034;-67
2022/08/08 12:23:09;;;;;;;2.75;1.00;;;;;;;;;;4993696;28;20049;-68
2022/08/08 12:25:36;;;;;;;2.38;0.88;;;;;;;;;;4989504;28;20413;-66
2022/08/08 12:28:28;;;;;;;2.13;0.88;;;;;;;;;;4990555;28;20074;-65
2022/08/08 12:31:04;;;;;;;2.33;1.00;;;;;;;;;;4986830;28;20054;-67
2022/08/08 12:33:31;;;;;;;2.67;0.90;;;;;;;;;;4990638;28;20050;-65
2022/08/08 12:35:57;;;;;;;2.50;0.70;;;;;;;;;;4990541;28;20046;-66
2022/08/08 12:38:23;;;;;;;1.92;1.05;;;;;;;;;;4989842;28;20326;-66
2022/08/08 12:40:52;;;;;;;4.40;1.00;;;;;;;;;;4985705;28;20373;-66
2022/08/08 12:43:27;;;;;;;4.90;0.95;;;;;;;;;;4989976;28;20585;-66
2022/08/08 12:45:54;;;;;;;2.60;1.20;;;;;;;;;;4991033;28;20104;-66
2022/08/08 12:48:20;;;;;;;3.17;1.35;;;;;;;;;;4990818;28;20386;-66
2022/08/08 12:50:48;;;;;;;2.22;0.90;;;;;;;;;;4989411;28;20054;-66
2022/08/08 12:53:31;;;;;;;2.42;0.77;;;;;;;;;;4989959;28;20049;-66
2022/08/08 12:55:57;;;;;;;3.95;1.13;;;;;;;;;;4990031;28;20564;-65
2022/08/08 12:58:27;;;;;;;5.90;2.83;;;;;;;;;;4989828;28;20092;-67
2022/08/08 13:00:53;;;;;;;3.70;1.17;;;;;;;;;;4990095;28;20038;-67
2022/08/08 13:03:23;;;;;;;2.53;1.08;;;;;;;;;;4999016;28;20484;-68
2022/08/08 13:05:49;;;;;;;2.53;0.95;;;;;;;;;;4999027;28;20046;-66
2022/08/08 13:08:16;;;;;;;1.65;1.13;;;;;;;;;;4988381;28;20057;-65
2022/08/08 13:10:49;;;;;;;3.85;1.02;;;;;;;;;;4996006;28;20042;-65
2022/08/08 13:13:26;;;;;;;4.82;1.00;;;;;;;;;;5003519;28;20046;-64
2022/08/08 13:15:53;;;;;;;1.52;0.77;;;;;;;;;;4990083;28;20081;-63
2022/08/08 13:18:19;;;;;;;2.97;1.10;;;;;;;;;;4989178;28;20039;-65
2022/08/08 13:20:45;;;;;;;3.85;0.80;;;;;;;;;;4989520;28;20170;-64
2022/08/08 13:23:20;;;;;;;2.88;1.20;;;;;;;;;;4988546;28;20062;-67
2022/08/08 13:25:46;;;;;;;3.75;1.00;;;;;;;;;;4987292;28;20421;-68
2022/08/08 13:28:12;;;;;;;3.50;1.00;;;;;;;;;;4990157;28;20117;-65
2022/08/08 13:30:43;;;;;;;2.80;1.00;;;;;;;;;;4992956;28;20458;-64
2022/08/08 13:33:09;;;;;;;2.45;1.08;;;;;;;;;;4993496;28;20141;-65
2022/08/08 13:35:38;;;;;;;4.07;1.00;;;;;;;;;;4992805;28;20038;-65
2022/08/08 13:38:04;;;;;;;2.50;1.10;;;;;;;;;;4991473;28;20043;-65
2022/08/08 13:40:31;;;;;;;4.18;1.10;;;;;;;;;;4992615;28;20034;-65
2022/08/08 13:42:57;;;;;;;1.50;1.00;;;;;;;;;;4993090;28;20377;-65
2022/08/08 13:45:23;;;;;;;2.85;1.10;;;;;;;;;;4991867;28;20474;-65
2022/08/08 13:47:59;;;;;;;3.50;0.95;;;;;;;;;;4992465;28;20058;-67
2022/08/08 13:50:26;;;;;;;1.95;0.77;;;;;;;;;;4975222;28;20047;-67
2022/08/08 13:52:52;;;;;;;3.85;0.77;;;;;;;;;;4992161;28;20053;-68
2022/08/08 13:55:18;;;;;;;3.03;0.98;;;;;;;;;;4993262;28;20046;-68
2022/08/08 13:57:44;;;;;;;3.75;1.00;;;;;;;;;;4993132;28;20429;-66
2022/08/08 14:00:14;;;;;;;9.25;1.27;;;;;;;;;;5006897;28;20061;-64
2022/08/08 14:02:40;;;;;;;2.38;0.80;;;;;;;;;;4995311;28;20489;-64
2022/08/08 14:05:08;;;;;;;1.63;0.98;;;;;;;;;;4993323;28;20049;-64
2022/08/08 14:07:39;;;;;;;3.08;1.10;;;;;;;;;;4992645;28;20042;-64
2022/08/08 14:10:12;;;;;;;1.70;0.90;;;;;;;;;;4992464;28;20133;-67
2022/08/08 14:12:39;;;;;;;2.03;0.70;;;;;;;;;;4994247;28;20378;-64
2022/08/08 14:15:06;;;;;;;2.45;1.45;;;;;;;;;;4991716;28;20050;-64
2022/08/08 14:17:33;;;;;;;2.75;0.80;;;;;;;;;;4992402;28;20070;-64
2022/08/08 14:20:09;;;;;;;3.13;1.20;;;;;;;;;;4992617;28;20481;-64
2022/08/08 14:22:39;;;;;;;2.95;0.80;;;;;;;;;;4991683;28;20457;-64
2022/08/08 14:25:07;;;;;;;2.42;0.80;;;;;;;;;;4992518;28;20069;-64
2022/08/08 14:27:34;;;;;;;4.93;0.90;;;;;;;;;;5000976;28;20077;-66
2022/08/08 14:30:02;;;;;;;3.85;1.00;;;;;;;;;;4992073;28;20042;-64
2022/08/08 14:32:29;;;;;;;1.58;0.90;;;;;;;;;;4990886;28;20046;-64
2022/08/08 14:34:57;;;;;;;4.70;1.10;;;;;;;;;;4991780;28;20038;-65
2022/08/08 14:37:23;;;;;;;3.00;0.90;;;;;;;;;;4991463;28;20054;-67
2022/08/08 14:39:51;;;;;;;3.80;1.00;;;;;;;;;;4991231;28;20134;-67
2022/08/08 14:42:27;;;;;;;1.33;0.95;;;;;;;;;;5001251;28;20101;-65
2022/08/08 14:44:54;;;;;;;3.35;0.90;;;;;;;;;;4991174;28;20153;-67
2022/08/08 14:47:20;;;;;;;3.97;0.90;;;;;;;;;;4992708;28;20062;-64
2022/08/08 14:49:46;;;;;;;2.05;1.00;;;;;;;;;;4992220;28;20057;-64
2022/08/08 14:52:12;;;;;;;2.15;0.70;;;;;;;;;;4991336;28;20101;-64
2022/08/08 14:54:46;;;;;;;1.85;0.95;;;;;;;;;;4991955;28;20049;-65
2022/08/08 14:57:12;;;;;;;1.00;0.80;;;;;;;;;;4992191;28;20042;-66
2022/08/08 14:59:38;;;;;;;3.15;1.08;;;;;;;;;;4992042;28;20104;-65
2022/08/08 15:02:05;;;;;;;6.65;1.02;;;;;;;;;;4992035;28;20042;-66
2022/08/08 15:04:31;;;;;;;1.73;1.00;;;;;;;;;;4991765;28;20077;-66